sensor_id;sensor_type;location;lat;lon;timestamp;P1;durP1;ratioP1;P2;durP2;ratioP2
43337;SDS011;28933;52.492;13.434;2022-10-28T00:00:01;10.02;;;6.72;;
43337;SDS011;28933;52.492;13.434;2022-10-28T00:02:29;8.63;;;5.82;;
43337;SDS011;28933;52.492;13.434;2022-10-28T00:04:56;9.38;;;5.40;;
43337;SDS011;28933;52.492;13.434;2022-10-28T00:07:21;8.40;;;5.45;;
43337;SDS011;28933;52.492;13.434;2022-10-28T00:09:47;9.68;;;6.13;;
43337;SDS011;28933;52.492;13.434;2022-10-28T00:12:12;15.88;;;9.52;;
43337;SDS011;28933;52.492;13.434;2022-10-28T00:14:38;14.18;;;10.60;;
43337;SDS011;28933;52.492;13.434;2022-10-28T00:17:03;10.40;;;6.57;;
43337;SDS011;28933;52.492;13.434;2022-10-28T00:19:29;12.75;;;8.05;;
43337;SDS011;28933;52.492;13.434;2022-10-28T00:21:55;10.43;;;7.65;;
43337;SDS011;28933;52.492;13.434;2022-10-28T00:24:20;11.27;;;7.10;;
43337;SDS011;28933;52.492;13.434;2022-10-28T00:26:46;10.27;;;7.45;;
43337;SDS011;28933;52.492;13.434;2022-10-28T00:29:12;8.13;;;6.35;;
43337;SDS011;28933;52.492;13.434;2022-10-28T00:31:40;9.32;;;7.13;;
43337;SDS011;28933;52.492;13.434;2022-10-28T00:34:08;8.70;;;6.57;;
43337;SDS011;28933;52.492;13.434;2022-10-28T00:36:36;9.15;;;6.70;;
43337;SDS011;28933;52.492;13.434;2022-10-28T00:39:08;11.95;;;6.80;;
43337;SDS011;28933;52.492;13.434;2022-10-28T00:41:37;8.30;;;6.18;;
43337;SDS011;28933;52.492;13.434;2022-10-28T00:49:47;9.50;;;6.70;;
43337;SDS011;28933;52.492;13.434;2022-10-28T00:52:16;11.07;;;6.55;;
43337;SDS011;28933;52.492;13.434;2022-10-28T00:54:45;11.07;;;7.28;;
43337;SDS011;28933;52.492;13.434;2022-10-28T00:57:13;9.48;;;6.60;;
43337;SDS011;28933;52.492;13.434;2022-10-28T00:59:44;11.02;;;6.40;;
43337;SDS011;28933;52.492;13.434;2022-10-28T01:02:14;8.20;;;6.25;;
43337;SDS011;28933;52.492;13.434;2022-10-28T01:04:40;13.25;;;7.25;;
43337;SDS011;28933;52.492;13.434;2022-10-28T01:07:07;7.43;;;5.85;;
43337;SDS011;28933;52.492;13.434;2022-10-28T01:09:33;8.70;;;6.78;;
43337;SDS011;28933;52.492;13.434;2022-10-28T01:14:50;15.27;;;7.00;;
43337;SDS011;28933;52.492;13.434;2022-10-28T01:20:21;7.57;;;6.40;;
43337;SDS011;28933;52.492;13.434;2022-10-28T01:33:34;8.63;;;5.65;;
43337;SDS011;28933;52.492;13.434;2022-10-28T01:36:13;11.27;;;6.30;;
43337;SDS011;28933;52.492;13.434;2022-10-28T01:38:56;7.10;;;5.97;;
43337;SDS011;28933;52.492;13.434;2022-10-28T01:47:21;8.75;;;5.88;;
43337;SDS011;28933;52.492;13.434;2022-10-28T01:49:58;9.13;;;5.82;;
43337;SDS011;28933;52.492;13.434;2022-10-28T01:52:30;7.57;;;5.85;;
43337;SDS011;28933;52.492;13.434;2022-10-28T01:55:16;8.63;;;5.93;;
43337;SDS011;28933;52.492;13.434;2022-10-28T01:57:50;10.02;;;6.53;;
43337;SDS011;28933;52.492;13.434;2022-10-28T02:00:17;9.10;;;5.95;;
43337;SDS011;28933;52.492;13.434;2022-10-28T02:02:43;8.52;;;6.45;;
43337;SDS011;28933;52.492;13.434;2022-10-28T02:27:40;8.35;;;6.05;;
43337;SDS011;28933;52.492;13.434;2022-10-28T02:30:24;9.00;;;5.80;;
43337;SDS011;28933;52.492;13.434;2022-10-28T02:32:58;9.23;;;5.88;;
43337;SDS011;28933;52.492;13.434;2022-10-28T02:38:00;11.18;;;5.70;;
43337;SDS011;28933;52.492;13.434;2022-10-28T02:40:29;7.65;;;6.40;;
43337;SDS011;28933;52.492;13.434;2022-10-28T02:43:02;9.32;;;6.55;;
43337;SDS011;28933;52.492;13.434;2022-10-28T02:45:33;8.52;;;5.72;;
43337;SDS011;28933;52.492;13.434;2022-10-28T02:48:08;10.10;;;6.43;;
43337;SDS011;28933;52.492;13.434;2022-10-28T02:50:41;10.48;;;5.78;;
43337;SDS011;28933;52.492;13.434;2022-10-28T02:53:15;7.90;;;6.07;;
43337;SDS011;28933;52.492;13.434;2022-10-28T02:55:47;7.25;;;5.43;;
43337;SDS011;28933;52.492;13.434;2022-10-28T02:58:16;9.35;;;6.05;;
43337;SDS011;28933;52.492;13.434;2022-10-28T03:00:44;11.13;;;6.80;;
43337;SDS011;28933;52.492;13.434;2022-10-28T03:03:10;12.77;;;6.20;;
43337;SDS011;28933;52.492;13.434;2022-10-28T03:05:37;9.40;;;5.82;;
43337;SDS011;28933;52.492;13.434;2022-10-28T03:08:04;7.18;;;5.88;;
43337;SDS011;28933;52.492;13.434;2022-10-28T03:10:29;10.18;;;5.95;;
43337;SDS011;28933;52.492;13.434;2022-10-28T03:12:55;9.15;;;5.55;;
43337;SDS011;28933;52.492;13.434;2022-10-28T03:15:27;9.00;;;5.82;;
43337;SDS011;28933;52.492;13.434;2022-10-28T03:17:53;8.00;;;5.97;;
43337;SDS011;28933;52.492;13.434;2022-10-28T03:20:21;6.57;;;5.50;;
43337;SDS011;28933;52.492;13.434;2022-10-28T03:22:46;9.82;;;6.05;;
43337;SDS011;28933;52.492;13.434;2022-10-28T03:25:12;7.75;;;5.93;;
43337;SDS011;28933;52.492;13.434;2022-10-28T03:27:38;10.73;;;7.30;;
43337;SDS011;28933;52.492;13.434;2022-10-28T03:30:05;9.45;;;5.68;;
43337;SDS011;28933;52.492;13.434;2022-10-28T03:32:31;11.27;;;6.45;;
43337;SDS011;28933;52.492;13.434;2022-10-28T03:34:57;9.48;;;6.28;;
43337;SDS011;28933;52.492;13.434;2022-10-28T03:37:22;6.97;;;5.93;;
43337;SDS011;28933;52.492;13.434;2022-10-28T03:39:48;9.55;;;5.50;;
43337;SDS011;28933;52.492;13.434;2022-10-28T03:42:13;7.93;;;6.53;;
43337;SDS011;28933;52.492;13.434;2022-10-28T03:44:39;9.63;;;6.57;;
43337;SDS011;28933;52.492;13.434;2022-10-28T03:47:05;8.20;;;6.13;;
43337;SDS011;28933;52.492;13.434;2022-10-28T03:49:30;9.38;;;6.28;;
43337;SDS011;28933;52.492;13.434;2022-10-28T03:51:56;10.07;;;7.03;;
43337;SDS011;28933;52.492;13.434;2022-10-28T03:54:21;11.38;;;5.97;;
43337;SDS011;28933;52.492;13.434;2022-10-28T03:56:47;8.80;;;7.10;;
43337;SDS011;28933;52.492;13.434;2022-10-28T03:59:12;10.45;;;6.05;;
43337;SDS011;28933;52.492;13.434;2022-10-28T04:01:38;10.88;;;6.35;;
43337;SDS011;28933;52.492;13.434;2022-10-28T04:04:04;8.85;;;6.22;;
43337;SDS011;28933;52.492;13.434;2022-10-28T04:06:30;8.30;;;6.18;;
43337;SDS011;28933;52.492;13.434;2022-10-28T04:08:55;7.88;;;5.72;;
43337;SDS011;28933;52.492;13.434;2022-10-28T04:11:21;10.15;;;6.30;;
43337;SDS011;28933;52.492;13.434;2022-10-28T04:13:47;7.90;;;6.25;;
43337;SDS011;28933;52.492;13.434;2022-10-28T04:16:12;10.02;;;6.68;;
43337;SDS011;28933;52.492;13.434;2022-10-28T04:18:38;11.25;;;6.25;;
43337;SDS011;28933;52.492;13.434;2022-10-28T04:21:03;8.57;;;6.70;;
43337;SDS011;28933;52.492;13.434;2022-10-28T04:23:29;10.38;;;7.18;;
43337;SDS011;28933;52.492;13.434;2022-10-28T04:25:55;9.00;;;6.63;;
43337;SDS011;28933;52.492;13.434;2022-10-28T04:28:22;9.50;;;6.22;;
43337;SDS011;28933;52.492;13.434;2022-10-28T04:30:50;9.27;;;7.40;;
43337;SDS011;28933;52.492;13.434;2022-10-28T04:33:16;8.48;;;6.68;;
43337;SDS011;28933;52.492;13.434;2022-10-28T04:35:42;9.77;;;6.45;;
43337;SDS011;28933;52.492;13.434;2022-10-28T04:38:09;9.60;;;6.97;;
43337;SDS011;28933;52.492;13.434;2022-10-28T04:40:35;8.95;;;6.70;;
43337;SDS011;28933;52.492;13.434;2022-10-28T04:43:00;8.48;;;6.32;;
43337;SDS011;28933;52.492;13.434;2022-10-28T04:45:26;7.78;;;6.00;;
43337;SDS011;28933;52.492;13.434;2022-10-28T04:47:56;11.10;;;7.45;;
43337;SDS011;28933;52.492;13.434;2022-10-28T04:50:22;10.75;;;6.88;;
43337;SDS011;28933;52.492;13.434;2022-10-28T04:52:47;9.95;;;6.35;;
43337;SDS011;28933;52.492;13.434;2022-10-28T04:55:13;9.95;;;7.10;;
43337;SDS011;28933;52.492;13.434;2022-10-28T04:57:38;10.75;;;6.75;;
43337;SDS011;28933;52.492;13.434;2022-10-28T05:00:04;11.15;;;7.20;;
43337;SDS011;28933;52.492;13.434;2022-10-28T05:02:30;11.30;;;7.50;;
43337;SDS011;28933;52.492;13.434;2022-10-28T05:04:56;10.23;;;7.35;;
43337;SDS011;28933;52.492;13.434;2022-10-28T05:07:26;9.98;;;7.25;;
43337;SDS011;28933;52.492;13.434;2022-10-28T05:09:52;13.07;;;7.72;;
43337;SDS011;28933;52.492;13.434;2022-10-28T05:12:17;11.15;;;7.53;;
43337;SDS011;28933;52.492;13.434;2022-10-28T05:14:43;10.35;;;7.43;;
43337;SDS011;28933;52.492;13.434;2022-10-28T05:17:10;11.65;;;7.88;;
43337;SDS011;28933;52.492;13.434;2022-10-28T05:19:36;11.70;;;8.45;;
43337;SDS011;28933;52.492;13.434;2022-10-28T05:22:01;13.27;;;7.90;;
43337;SDS011;28933;52.492;13.434;2022-10-28T05:24:27;9.82;;;8.00;;
43337;SDS011;28933;52.492;13.434;2022-10-28T05:26:54;10.38;;;7.40;;
43337;SDS011;28933;52.492;13.434;2022-10-28T05:29:19;12.15;;;7.85;;
43337;SDS011;28933;52.492;13.434;2022-10-28T05:31:45;9.48;;;7.45;;
43337;SDS011;28933;52.492;13.434;2022-10-28T05:34:10;13.13;;;7.75;;
43337;SDS011;28933;52.492;13.434;2022-10-28T05:36:36;11.93;;;7.93;;
43337;SDS011;28933;52.492;13.434;2022-10-28T05:39:02;11.95;;;7.90;;
43337;SDS011;28933;52.492;13.434;2022-10-28T05:41:28;9.85;;;7.85;;
43337;SDS011;28933;52.492;13.434;2022-10-28T05:43:54;11.82;;;7.78;;
43337;SDS011;28933;52.492;13.434;2022-10-28T05:46:20;11.82;;;7.75;;
43337;SDS011;28933;52.492;13.434;2022-10-28T05:48:46;11.85;;;7.30;;
43337;SDS011;28933;52.492;13.434;2022-10-28T05:51:12;10.80;;;7.50;;
43337;SDS011;28933;52.492;13.434;2022-10-28T05:53:38;11.95;;;8.15;;
43337;SDS011;28933;52.492;13.434;2022-10-28T05:56:06;12.38;;;8.35;;
43337;SDS011;28933;52.492;13.434;2022-10-28T05:58:33;9.95;;;8.82;;
43337;SDS011;28933;52.492;13.434;2022-10-28T06:00:58;11.32;;;8.10;;
43337;SDS011;28933;52.492;13.434;2022-10-28T06:03:24;11.02;;;7.60;;
43337;SDS011;28933;52.492;13.434;2022-10-28T06:05:50;12.68;;;8.13;;
43337;SDS011;28933;52.492;13.434;2022-10-28T06:08:16;15.00;;;8.07;;
43337;SDS011;28933;52.492;13.434;2022-10-28T06:10:48;14.52;;;8.32;;
43337;SDS011;28933;52.492;13.434;2022-10-28T06:13:15;10.95;;;7.63;;
43337;SDS011;28933;52.492;13.434;2022-10-28T06:15:40;8.65;;;6.85;;
43337;SDS011;28933;52.492;13.434;2022-10-28T06:18:06;12.30;;;8.25;;
43337;SDS011;28933;52.492;13.434;2022-10-28T06:20:31;13.30;;;7.40;;
43337;SDS011;28933;52.492;13.434;2022-10-28T06:22:57;10.10;;;7.43;;
43337;SDS011;28933;52.492;13.434;2022-10-28T06:25:23;10.57;;;7.45;;
43337;SDS011;28933;52.492;13.434;2022-10-28T06:27:54;10.50;;;7.00;;
43337;SDS011;28933;52.492;13.434;2022-10-28T06:30:22;10.77;;;6.80;;
43337;SDS011;28933;52.492;13.434;2022-10-28T06:32:49;10.18;;;6.53;;
43337;SDS011;28933;52.492;13.434;2022-10-28T06:35:15;10.93;;;6.63;;
43337;SDS011;28933;52.492;13.434;2022-10-28T06:37:40;12.93;;;6.03;;
43337;SDS011;28933;52.492;13.434;2022-10-28T06:40:06;11.30;;;7.53;;
43337;SDS011;28933;52.492;13.434;2022-10-28T06:42:32;12.43;;;6.38;;
43337;SDS011;28933;52.492;13.434;2022-10-28T06:44:58;11.35;;;6.25;;
43337;SDS011;28933;52.492;13.434;2022-10-28T06:47:23;10.57;;;6.72;;
43337;SDS011;28933;52.492;13.434;2022-10-28T06:49:49;10.57;;;6.53;;
43337;SDS011;28933;52.492;13.434;2022-10-28T06:52:15;8.52;;;6.30;;
43337;SDS011;28933;52.492;13.434;2022-10-28T06:54:41;11.13;;;7.65;;
43337;SDS011;28933;52.492;13.434;2022-10-28T06:57:07;9.68;;;5.80;;
43337;SDS011;28933;52.492;13.434;2022-10-28T06:59:34;12.15;;;7.07;;
43337;SDS011;28933;52.492;13.434;2022-10-28T07:02:03;11.55;;;7.30;;
43337;SDS011;28933;52.492;13.434;2022-10-28T07:04:29;11.57;;;7.50;;
43337;SDS011;28933;52.492;13.434;2022-10-28T07:06:55;8.45;;;6.47;;
43337;SDS011;28933;52.492;13.434;2022-10-28T07:09:21;9.38;;;6.22;;
43337;SDS011;28933;52.492;13.434;2022-10-28T07:11:55;12.75;;;6.55;;
43337;SDS011;28933;52.492;13.434;2022-10-28T07:14:21;11.95;;;6.47;;
43337;SDS011;28933;52.492;13.434;2022-10-28T07:16:47;9.95;;;6.55;;
43337;SDS011;28933;52.492;13.434;2022-10-28T07:19:13;9.68;;;6.50;;
43337;SDS011;28933;52.492;13.434;2022-10-28T07:21:38;12.27;;;6.55;;
43337;SDS011;28933;52.492;13.434;2022-10-28T07:24:04;9.65;;;6.32;;
43337;SDS011;28933;52.492;13.434;2022-10-28T07:26:30;9.35;;;6.10;;
43337;SDS011;28933;52.492;13.434;2022-10-28T07:28:55;9.57;;;6.28;;
43337;SDS011;28933;52.492;13.434;2022-10-28T07:31:21;9.75;;;5.82;;
43337;SDS011;28933;52.492;13.434;2022-10-28T07:33:53;8.52;;;6.13;;
43337;SDS011;28933;52.492;13.434;2022-10-28T07:36:19;11.30;;;5.40;;
43337;SDS011;28933;52.492;13.434;2022-10-28T07:38:48;7.75;;;5.90;;
43337;SDS011;28933;52.492;13.434;2022-10-28T07:41:16;13.55;;;6.28;;
43337;SDS011;28933;52.492;13.434;2022-10-28T07:43:43;8.18;;;5.57;;
43337;SDS011;28933;52.492;13.434;2022-10-28T07:46:12;10.77;;;5.57;;
43337;SDS011;28933;52.492;13.434;2022-10-28T07:48:38;8.43;;;5.70;;
43337;SDS011;28933;52.492;13.434;2022-10-28T07:51:05;8.52;;;5.38;;
43337;SDS011;28933;52.492;13.434;2022-10-28T07:53:31;8.55;;;5.90;;
43337;SDS011;28933;52.492;13.434;2022-10-28T07:55:58;8.18;;;5.93;;
43337;SDS011;28933;52.492;13.434;2022-10-28T07:58:29;12.20;;;6.32;;
43337;SDS011;28933;52.492;13.434;2022-10-28T08:00:55;9.63;;;5.50;;
43337;SDS011;28933;52.492;13.434;2022-10-28T08:03:25;8.60;;;5.65;;
43337;SDS011;28933;52.492;13.434;2022-10-28T08:05:58;8.95;;;5.50;;
43337;SDS011;28933;52.492;13.434;2022-10-28T08:08:29;13.00;;;5.05;;
43337;SDS011;28933;52.492;13.434;2022-10-28T08:10:54;7.95;;;5.07;;
43337;SDS011;28933;52.492;13.434;2022-10-28T08:13:20;8.45;;;4.97;;
43337;SDS011;28933;52.492;13.434;2022-10-28T08:15:52;9.07;;;5.03;;
43337;SDS011;28933;52.492;13.434;2022-10-28T08:18:19;8.73;;;4.78;;
43337;SDS011;28933;52.492;13.434;2022-10-28T08:20:46;10.57;;;5.97;;
43337;SDS011;28933;52.492;13.434;2022-10-28T08:23:12;9.32;;;4.32;;
43337;SDS011;28933;52.492;13.434;2022-10-28T08:25:46;8.65;;;4.82;;
43337;SDS011;28933;52.492;13.434;2022-10-28T08:28:15;7.63;;;4.55;;
43337;SDS011;28933;52.492;13.434;2022-10-28T08:30:42;11.00;;;5.60;;
43337;SDS011;28933;52.492;13.434;2022-10-28T08:33:07;14.57;;;5.57;;
43337;SDS011;28933;52.492;13.434;2022-10-28T08:35:34;15.30;;;5.20;;
43337;SDS011;28933;52.492;13.434;2022-10-28T08:38:00;7.60;;;4.78;;
43337;SDS011;28933;52.492;13.434;2022-10-28T08:40:30;9.38;;;5.18;;
43337;SDS011;28933;52.492;13.434;2022-10-28T08:43:01;7.50;;;4.38;;
43337;SDS011;28933;52.492;13.434;2022-10-28T08:46:06;6.75;;;4.63;;
43337;SDS011;28933;52.492;13.434;2022-10-28T08:48:39;8.35;;;4.78;;
43337;SDS011;28933;52.492;13.434;2022-10-28T08:51:13;7.03;;;4.63;;
43337;SDS011;28933;52.492;13.434;2022-10-28T08:53:44;10.05;;;5.00;;
43337;SDS011;28933;52.492;13.434;2022-10-28T08:58:53;7.05;;;4.60;;
43337;SDS011;28933;52.492;13.434;2022-10-28T09:01:29;6.35;;;4.05;;
43337;SDS011;28933;52.492;13.434;2022-10-28T09:04:20;10.02;;;4.72;;
43337;SDS011;28933;52.492;13.434;2022-10-28T09:07:01;6.63;;;4.07;;
43337;SDS011;28933;52.492;13.434;2022-10-28T09:09:28;12.30;;;5.22;;
43337;SDS011;28933;52.492;13.434;2022-10-28T09:14:28;7.63;;;4.50;;
43337;SDS011;28933;52.492;13.434;2022-10-28T09:17:25;7.28;;;4.63;;
43337;SDS011;28933;52.492;13.434;2022-10-28T09:20:04;8.95;;;5.13;;
43337;SDS011;28933;52.492;13.434;2022-10-28T09:22:56;8.37;;;4.80;;
43337;SDS011;28933;52.492;13.434;2022-10-28T09:28:29;7.75;;;4.15;;
43337;SDS011;28933;52.492;13.434;2022-10-28T09:31:19;8.75;;;4.68;;
43337;SDS011;28933;52.492;13.434;2022-10-28T09:37:03;13.88;;;5.03;;
43337;SDS011;28933;52.492;13.434;2022-10-28T09:39:40;6.65;;;3.95;;
43337;SDS011;28933;52.492;13.434;2022-10-28T09:42:08;7.43;;;4.05;;
43337;SDS011;28933;52.492;13.434;2022-10-28T09:44:45;9.60;;;5.28;;
43337;SDS011;28933;52.492;13.434;2022-10-28T09:47:17;7.03;;;4.32;;
43337;SDS011;28933;52.492;13.434;2022-10-28T09:49:56;9.38;;;4.38;;
43337;SDS011;28933;52.492;13.434;2022-10-28T09:55:40;13.35;;;4.70;;
43337;SDS011;28933;52.492;13.434;2022-10-28T09:58:06;8.60;;;4.18;;
43337;SDS011;28933;52.492;13.434;2022-10-28T10:00:36;11.13;;;4.70;;
43337;SDS011;28933;52.492;13.434;2022-10-28T10:03:02;6.32;;;3.97;;
43337;SDS011;28933;52.492;13.434;2022-10-28T10:05:27;8.48;;;4.00;;
43337;SDS011;28933;52.492;13.434;2022-10-28T10:08:00;6.93;;;4.30;;
43337;SDS011;28933;52.492;13.434;2022-10-28T10:10:38;6.75;;;4.20;;
43337;SDS011;28933;52.492;13.434;2022-10-28T10:13:11;11.15;;;5.32;;
43337;SDS011;28933;52.492;13.434;2022-10-28T10:15:44;8.43;;;4.28;;
43337;SDS011;28933;52.492;13.434;2022-10-28T10:18:16;8.10;;;3.70;;
43337;SDS011;28933;52.492;13.434;2022-10-28T10:20:53;6.85;;;4.13;;
43337;SDS011;28933;52.492;13.434;2022-10-28T10:23:26;8.52;;;4.05;;
43337;SDS011;28933;52.492;13.434;2022-10-28T10:26:27;6.03;;;3.85;;
43337;SDS011;28933;52.492;13.434;2022-10-28T10:28:47;7.80;;;3.72;;
43337;SDS011;28933;52.492;13.434;2022-10-28T10:33:47;9.07;;;3.75;;
43337;SDS011;28933;52.492;13.434;2022-10-28T10:36:15;6.95;;;4.50;;
43337;SDS011;28933;52.492;13.434;2022-10-28T10:38:52;5.82;;;4.10;;
43337;SDS011;28933;52.492;13.434;2022-10-28T10:41:41;6.07;;;3.22;;
43337;SDS011;28933;52.492;13.434;2022-10-28T10:46:46;6.57;;;3.75;;
43337;SDS011;28933;52.492;13.434;2022-10-28T10:49:32;7.35;;;3.60;;
43337;SDS011;28933;52.492;13.434;2022-10-28T10:52:14;11.35;;;3.60;;
43337;SDS011;28933;52.492;13.434;2022-10-28T10:54:54;8.10;;;3.67;;
43337;SDS011;28933;52.492;13.434;2022-10-28T10:57:24;5.65;;;3.60;;
43337;SDS011;28933;52.492;13.434;2022-10-28T10:59:51;6.18;;;3.20;;
43337;SDS011;28933;52.492;13.434;2022-10-28T11:02:21;5.72;;;3.50;;
43337;SDS011;28933;52.492;13.434;2022-10-28T11:04:50;8.30;;;4.07;;
43337;SDS011;28933;52.492;13.434;2022-10-28T11:07:18;8.00;;;3.85;;
43337;SDS011;28933;52.492;13.434;2022-10-28T11:09:46;8.90;;;4.47;;
43337;SDS011;28933;52.492;13.434;2022-10-28T11:12:29;8.88;;;3.75;;
43337;SDS011;28933;52.492;13.434;2022-10-28T11:17:29;7.45;;;3.33;;
43337;SDS011;28933;52.492;13.434;2022-10-28T11:19:56;7.32;;;3.90;;
43337;SDS011;28933;52.492;13.434;2022-10-28T11:25:26;5.63;;;3.55;;
43337;SDS011;28933;52.492;13.434;2022-10-28T11:30:56;8.82;;;3.33;;
43337;SDS011;28933;52.492;13.434;2022-10-28T11:33:36;7.28;;;3.20;;
43337;SDS011;28933;52.492;13.434;2022-10-28T11:39:19;8.68;;;3.63;;
43337;SDS011;28933;52.492;13.434;2022-10-28T11:42:07;8.90;;;3.40;;
43337;SDS011;28933;52.492;13.434;2022-10-28T11:47:24;7.25;;;3.22;;
43337;SDS011;28933;52.492;13.434;2022-10-28T11:58:18;10.52;;;3.08;;
43337;SDS011;28933;52.492;13.434;2022-10-28T12:00:56;7.97;;;3.22;;
43337;SDS011;28933;52.492;13.434;2022-10-28T12:03:42;7.55;;;3.33;;
43337;SDS011;28933;52.492;13.434;2022-10-28T12:17:31;9.13;;;3.75;;
43337;SDS011;28933;52.492;13.434;2022-10-28T12:20:12;11.35;;;3.85;;
43337;SDS011;28933;52.492;13.434;2022-10-28T12:22:55;6.18;;;3.00;;
43337;SDS011;28933;52.492;13.434;2022-10-28T12:25:24;13.23;;;3.42;;
43337;SDS011;28933;52.492;13.434;2022-10-28T12:28:00;8.23;;;3.42;;
43337;SDS011;28933;52.492;13.434;2022-10-28T12:30:31;11.50;;;4.38;;
43337;SDS011;28933;52.492;13.434;2022-10-28T12:33:04;7.15;;;3.67;;
43337;SDS011;28933;52.492;13.434;2022-10-28T12:35:39;7.75;;;4.35;;
43337;SDS011;28933;52.492;13.434;2022-10-28T12:38:15;4.55;;;3.03;;
43337;SDS011;28933;52.492;13.434;2022-10-28T12:40:58;9.10;;;3.13;;
43337;SDS011;28933;52.492;13.434;2022-10-28T12:43:35;8.48;;;3.67;;
43337;SDS011;28933;52.492;13.434;2022-10-28T12:48:43;7.93;;;3.50;;
43337;SDS011;28933;52.492;13.434;2022-10-28T12:51:28;5.65;;;3.35;;
43337;SDS011;28933;52.492;13.434;2022-10-28T12:53:59;7.50;;;3.20;;
43337;SDS011;28933;52.492;13.434;2022-10-28T12:56:41;7.88;;;3.10;;
43337;SDS011;28933;52.492;13.434;2022-10-28T13:01:55;7.07;;;2.83;;
43337;SDS011;28933;52.492;13.434;2022-10-28T13:04:26;5.60;;;3.30;;
43337;SDS011;28933;52.492;13.434;2022-10-28T13:07:02;5.70;;;3.08;;
43337;SDS011;28933;52.492;13.434;2022-10-28T13:18:12;6.55;;;3.72;;
43337;SDS011;28933;52.492;13.434;2022-10-28T13:20:45;7.65;;;3.67;;
43337;SDS011;28933;52.492;13.434;2022-10-28T13:23:55;6.13;;;2.92;;
43337;SDS011;28933;52.492;13.434;2022-10-28T13:26:45;6.55;;;3.38;;
43337;SDS011;28933;52.492;13.434;2022-10-28T13:29:23;8.77;;;4.10;;
43337;SDS011;28933;52.492;13.434;2022-10-28T13:31:51;8.70;;;3.42;;
43337;SDS011;28933;52.492;13.434;2022-10-28T13:34:19;8.75;;;3.92;;
43337;SDS011;28933;52.492;13.434;2022-10-28T13:36:59;9.43;;;3.53;;
43337;SDS011;28933;52.492;13.434;2022-10-28T13:44:55;5.35;;;2.90;;
43337;SDS011;28933;52.492;13.434;2022-10-28T13:47:26;8.50;;;3.40;;
43337;SDS011;28933;52.492;13.434;2022-10-28T13:55:22;7.55;;;3.40;;
43337;SDS011;28933;52.492;13.434;2022-10-28T13:58:34;7.15;;;3.88;;
43337;SDS011;28933;52.492;13.434;2022-10-28T14:00:48;10.25;;;4.25;;
43337;SDS011;28933;52.492;13.434;2022-10-28T14:03:18;6.72;;;3.72;;
43337;SDS011;28933;52.492;13.434;2022-10-28T14:05:49;6.88;;;3.30;;
43337;SDS011;28933;52.492;13.434;2022-10-28T14:08:18;8.90;;;4.15;;
43337;SDS011;28933;52.492;13.434;2022-10-28T14:11:05;12.60;;;4.15;;
43337;SDS011;28933;52.492;13.434;2022-10-28T14:13:46;8.98;;;4.00;;
43337;SDS011;28933;52.492;13.434;2022-10-28T14:16:21;7.00;;;3.47;;
43337;SDS011;28933;52.492;13.434;2022-10-28T14:18:51;7.90;;;3.40;;
43337;SDS011;28933;52.492;13.434;2022-10-28T14:24:06;7.70;;;4.00;;
43337;SDS011;28933;52.492;13.434;2022-10-28T14:45:25;9.77;;;4.25;;
43337;SDS011;28933;52.492;13.434;2022-10-28T14:48:15;10.05;;;4.07;;
43337;SDS011;28933;52.492;13.434;2022-10-28T14:50:53;11.90;;;4.10;;
43337;SDS011;28933;52.492;13.434;2022-10-28T14:53:27;6.72;;;3.60;;
43337;SDS011;28933;52.492;13.434;2022-10-28T14:55:59;6.82;;;3.88;;
43337;SDS011;28933;52.492;13.434;2022-10-28T14:58:29;7.22;;;4.38;;
43337;SDS011;28933;52.492;13.434;2022-10-28T15:01:05;10.00;;;3.65;;
43337;SDS011;28933;52.492;13.434;2022-10-28T15:06:30;7.32;;;3.60;;
43337;SDS011;28933;52.492;13.434;2022-10-28T15:09:12;10.40;;;5.03;;
43337;SDS011;28933;52.492;13.434;2022-10-28T15:11:41;13.73;;;4.32;;
43337;SDS011;28933;52.492;13.434;2022-10-28T15:14:29;15.68;;;4.82;;
43337;SDS011;28933;52.492;13.434;2022-10-28T15:16:58;8.50;;;4.00;;
43337;SDS011;28933;52.492;13.434;2022-10-28T15:19:27;5.90;;;3.95;;
43337;SDS011;28933;52.492;13.434;2022-10-28T15:21:59;8.75;;;4.90;;
43337;SDS011;28933;52.492;13.434;2022-10-28T15:24:24;8.70;;;4.43;;
43337;SDS011;28933;52.492;13.434;2022-10-28T15:26:53;6.45;;;3.90;;
43337;SDS011;28933;52.492;13.434;2022-10-28T15:29:20;9.82;;;4.55;;
43337;SDS011;28933;52.492;13.434;2022-10-28T15:32:02;10.65;;;4.95;;
43337;SDS011;28933;52.492;13.434;2022-10-28T15:34:51;9.30;;;5.20;;
43337;SDS011;28933;52.492;13.434;2022-10-28T15:37:20;13.57;;;6.28;;
43337;SDS011;28933;52.492;13.434;2022-10-28T15:39:51;8.77;;;4.60;;
43337;SDS011;28933;52.492;13.434;2022-10-28T15:42:36;8.00;;;4.10;;
43337;SDS011;28933;52.492;13.434;2022-10-28T15:45:15;10.98;;;4.95;;
43337;SDS011;28933;52.492;13.434;2022-10-28T15:47:50;7.88;;;4.63;;
43337;SDS011;28933;52.492;13.434;2022-10-28T15:52:48;10.23;;;4.55;;
43337;SDS011;28933;52.492;13.434;2022-10-28T15:57:52;10.25;;;4.97;;
43337;SDS011;28933;52.492;13.434;2022-10-28T16:00:23;13.43;;;5.38;;
43337;SDS011;28933;52.492;13.434;2022-10-28T16:02:59;9.18;;;4.18;;
43337;SDS011;28933;52.492;13.434;2022-10-28T16:08:07;10.73;;;5.75;;
43337;SDS011;28933;52.492;13.434;2022-10-28T16:10:51;12.18;;;5.18;;
43337;SDS011;28933;52.492;13.434;2022-10-28T16:13:37;7.80;;;4.88;;
43337;SDS011;28933;52.492;13.434;2022-10-28T16:16:11;9.88;;;4.90;;
43337;SDS011;28933;52.492;13.434;2022-10-28T16:18:43;15.25;;;5.35;;
43337;SDS011;28933;52.492;13.434;2022-10-28T16:21:17;9.88;;;5.00;;
43337;SDS011;28933;52.492;13.434;2022-10-28T16:23:48;15.13;;;6.13;;
43337;SDS011;28933;52.492;13.434;2022-10-28T16:26:17;10.05;;;5.00;;
43337;SDS011;28933;52.492;13.434;2022-10-28T16:28:43;9.15;;;5.60;;
43337;SDS011;28933;52.492;13.434;2022-10-28T16:31:13;9.45;;;4.93;;
43337;SDS011;28933;52.492;13.434;2022-10-28T16:33:40;13.13;;;6.45;;
43337;SDS011;28933;52.492;13.434;2022-10-28T16:36:06;9.77;;;4.95;;
43337;SDS011;28933;52.492;13.434;2022-10-28T16:38:32;10.60;;;5.75;;
43337;SDS011;28933;52.492;13.434;2022-10-28T16:40:58;11.20;;;5.88;;
43337;SDS011;28933;52.492;13.434;2022-10-28T16:43:25;10.27;;;6.20;;
43337;SDS011;28933;52.492;13.434;2022-10-28T16:45:52;10.82;;;5.88;;
43337;SDS011;28933;52.492;13.434;2022-10-28T16:48:20;10.07;;;5.93;;
43337;SDS011;28933;52.492;13.434;2022-10-28T16:50:49;9.30;;;5.70;;
43337;SDS011;28933;52.492;13.434;2022-10-28T16:53:16;7.45;;;5.15;;
43337;SDS011;28933;52.492;13.434;2022-10-28T16:55:42;12.32;;;5.25;;
43337;SDS011;28933;52.492;13.434;2022-10-28T16:58:07;14.25;;;5.70;;
43337;SDS011;28933;52.492;13.434;2022-10-28T17:00:37;10.43;;;6.13;;
43337;SDS011;28933;52.492;13.434;2022-10-28T17:03:04;11.30;;;6.60;;
43337;SDS011;28933;52.492;13.434;2022-10-28T17:05:30;13.68;;;6.43;;
43337;SDS011;28933;52.492;13.434;2022-10-28T17:07:56;11.43;;;6.88;;
43337;SDS011;28933;52.492;13.434;2022-10-28T17:10:25;9.00;;;5.57;;
43337;SDS011;28933;52.492;13.434;2022-10-28T17:12:51;12.38;;;6.40;;
43337;SDS011;28933;52.492;13.434;2022-10-28T17:15:17;12.35;;;6.13;;
43337;SDS011;28933;52.492;13.434;2022-10-28T17:17:50;11.02;;;6.60;;
43337;SDS011;28933;52.492;13.434;2022-10-28T17:20:19;14.73;;;7.63;;
43337;SDS011;28933;52.492;13.434;2022-10-28T17:22:45;12.23;;;7.53;;
43337;SDS011;28933;52.492;13.434;2022-10-28T17:25:10;11.32;;;6.20;;
43337;SDS011;28933;52.492;13.434;2022-10-28T17:27:36;12.70;;;6.22;;
43337;SDS011;28933;52.492;13.434;2022-10-28T17:30:02;14.00;;;6.18;;